sensor_id;sensor_type;location;lat;lon;timestamp;P1;durP1;ratioP1;P2;durP2;ratioP2
76548;SDS011;65391;52.068;4.542;2023-07-24T00:02:13;6.8;;;3.5;;
76548;SDS011;65391;52.068;4.542;2023-07-24T00:04:38;5.2;;;2.9;;
76548;SDS011;65391;52.068;4.542;2023-07-24T00:07:03;5.2;;;2.9;;
76548;SDS011;65391;52.068;4.542;2023-07-24T00:09:28;5.2;;;2.9;;
76548;SDS011;65391;52.068;4.542;2023-07-24T00:11:53;5.2;;;2.9;;
76548;SDS011;65391;52.068;4.542;2023-07-24T00:14:18;4.2;;;2.6;;
76548;SDS011;65391;52.068;4.542;2023-07-24T00:16:43;4.2;;;2.6;;
76548;SDS011;65391;52.068;4.542;2023-07-24T00:19:08;4.2;;;2.6;;
76548;SDS011;65391;52.068;4.542;2023-07-24T00:21:33;4.2;;;2.6;;
76548;SDS011;65391;52.068;4.542;2023-07-24T00:23:58;5.1;;;2.8;;
76548;SDS011;65391;52.068;4.542;2023-07-24T00:26:23;5.1;;;2.8;;
76548;SDS011;65391;52.068;4.542;2023-07-24T00:28:48;5.1;;;2.8;;
76548;SDS011;65391;52.068;4.542;2023-07-24T00:31:13;5.1;;;2.8;;
76548;SDS011;65391;52.068;4.542;2023-07-24T00:33:38;4.9;;;2.9;;
76548;SDS011;65391;52.068;4.542;2023-07-24T00:36:03;4.9;;;2.9;;
76548;SDS011;65391;52.068;4.542;2023-07-24T00:38:28;4.9;;;2.9;;
76548;SDS011;65391;52.068;4.542;2023-07-24T00:40:53;4.9;;;2.9;;
76548;SDS011;65391;52.068;4.542;2023-07-24T00:43:18;6.1;;;2.9;;
76548;SDS011;65391;52.068;4.542;2023-07-24T00:45:43;6.1;;;2.9;;
76548;SDS011;65391;52.068;4.542;2023-07-24T00:48:08;6.1;;;2.9;;
76548;SDS011;65391;52.068;4.542;2023-07-24T00:50:33;6.1;;;2.9;;
76548;SDS011;65391;52.068;4.542;2023-07-24T00:52:58;6.1;;;2.9;;
76548;SDS011;65391;52.068;4.542;2023-07-24T00:55:23;5.1;;;2.7;;
76548;SDS011;65391;52.068;4.542;2023-07-24T00:57:48;5.1;;;2.7;;
76548;SDS011;65391;52.068;4.542;2023-07-24T01:00:13;5.1;;;2.7;;
76548;SDS011;65391;52.068;4.542;2023-07-24T01:02:38;5.1;;;2.7;;
76548;SDS011;65391;52.068;4.542;2023-07-24T01:05:03;5.5;;;3.1;;
76548;SDS011;65391;52.068;4.542;2023-07-24T01:07:28;5.5;;;3.1;;
76548;SDS011;65391;52.068;4.542;2023-07-24T01:09:53;5.5;;;3.1;;
76548;SDS011;65391;52.068;4.542;2023-07-24T01:12:22;5.5;;;3.1;;
76548;SDS011;65391;52.068;4.542;2023-07-24T01:14:44;10.4;;;3.8;;
76548;SDS011;65391;52.068;4.542;2023-07-24T01:17:08;10.4;;;3.8;;
76548;SDS011;65391;52.068;4.542;2023-07-24T01:19:36;10.4;;;3.8;;
76548;SDS011;65391;52.068;4.542;2023-07-24T01:22:01;10.4;;;3.8;;
76548;SDS011;65391;52.068;4.542;2023-07-24T01:24:28;6.3;;;3.4;;
76548;SDS011;65391;52.068;4.542;2023-07-24T01:26:48;6.3;;;3.4;;
76548;SDS011;65391;52.068;4.542;2023-07-24T01:29:13;6.3;;;3.4;;
76548;SDS011;65391;52.068;4.542;2023-07-24T01:31:38;6.3;;;3.4;;
76548;SDS011;65391;52.068;4.542;2023-07-24T01:34:03;6.4;;;3.7;;
76548;SDS011;65391;52.068;4.542;2023-07-24T01:36:28;6.4;;;3.7;;
76548;SDS011;65391;52.068;4.542;2023-07-24T01:38:53;6.4;;;3.7;;
76548;SDS011;65391;52.068;4.542;2023-07-24T01:41:18;6.4;;;3.7;;
76548;SDS011;65391;52.068;4.542;2023-07-24T01:43:43;7.9;;;3.7;;
76548;SDS011;65391;52.068;4.542;2023-07-24T01:46:08;7.9;;;3.7;;
76548;SDS011;65391;52.068;4.542;2023-07-24T01:48:33;7.9;;;3.7;;
76548;SDS011;65391;52.068;4.542;2023-07-24T01:50:58;7.9;;;3.7;;
76548;SDS011;65391;52.068;4.542;2023-07-24T01:53:23;7.4;;;3.8;;
76548;SDS011;65391;52.068;4.542;2023-07-24T01:55:48;7.4;;;3.8;;
76548;SDS011;65391;52.068;4.542;2023-07-24T01:58:13;7.4;;;3.8;;
76548;SDS011;65391;52.068;4.542;2023-07-24T02:00:38;7.4;;;3.8;;
76548;SDS011;65391;52.068;4.542;2023-07-24T02:03:03;7.4;;;3.8;;
76548;SDS011;65391;52.068;4.542;2023-07-24T02:05:28;9.6;;;3.9;;
76548;SDS011;65391;52.068;4.542;2023-07-24T02:07:53;9.6;;;3.9;;
76548;SDS011;65391;52.068;4.542;2023-07-24T02:10:18;9.6;;;3.9;;
76548;SDS011;65391;52.068;4.542;2023-07-24T02:12:43;9.6;;;3.9;;
76548;SDS011;65391;52.068;4.542;2023-07-24T02:15:09;8.3;;;3.7;;
76548;SDS011;65391;52.068;4.542;2023-07-24T02:17:33;8.3;;;3.7;;
76548;SDS011;65391;52.068;4.542;2023-07-24T02:19:58;8.3;;;3.7;;
76548;SDS011;65391;52.068;4.542;2023-07-24T02:22:23;8.3;;;3.7;;
76548;SDS011;65391;52.068;4.542;2023-07-24T02:24:48;8.3;;;3.8;;
76548;SDS011;65391;52.068;4.542;2023-07-24T02:27:23;8.3;;;3.8;;
76548;SDS011;65391;52.068;4.542;2023-07-24T02:29:38;8.3;;;3.8;;
76548;SDS011;65391;52.068;4.542;2023-07-24T02:32:03;8.3;;;3.8;;
76548;SDS011;65391;52.068;4.542;2023-07-24T02:34:28;9.3;;;3.3;;
76548;SDS011;65391;52.068;4.542;2023-07-24T02:36:53;9.3;;;3.3;;
76548;SDS011;65391;52.068;4.542;2023-07-24T02:39:18;9.3;;;3.3;;
76548;SDS011;65391;52.068;4.542;2023-07-24T02:41:43;9.3;;;3.3;;
76548;SDS011;65391;52.068;4.542;2023-07-24T02:44:08;8.5;;;3.4;;
76548;SDS011;65391;52.068;4.542;2023-07-24T02:46:33;8.5;;;3.4;;
76548;SDS011;65391;52.068;4.542;2023-07-24T02:48:58;8.5;;;3.4;;
76548;SDS011;65391;52.068;4.542;2023-07-24T02:51:23;8.5;;;3.4;;
76548;SDS011;65391;52.068;4.542;2023-07-24T02:53:48;6;;;3.3;;
76548;SDS011;65391;52.068;4.542;2023-07-24T02:56:13;6;;;3.3;;
76548;SDS011;65391;52.068;4.542;2023-07-24T02:58:38;6;;;3.3;;
76548;SDS011;65391;52.068;4.542;2023-07-24T03:01:03;6;;;3.3;;
76548;SDS011;65391;52.068;4.542;2023-07-24T03:03:28;9.4;;;3.6;;
76548;SDS011;65391;52.068;4.542;2023-07-24T03:05:53;9.4;;;3.6;;
76548;SDS011;65391;52.068;4.542;2023-07-24T03:08:18;9.4;;;3.6;;
76548;SDS011;65391;52.068;4.542;2023-07-24T03:10:43;9.4;;;3.6;;
76548;SDS011;65391;52.068;4.542;2023-07-24T03:13:08;9.4;;;3.6;;
76548;SDS011;65391;52.068;4.542;2023-07-24T03:15:33;9.8;;;3.7;;
76548;SDS011;65391;52.068;4.542;2023-07-24T03:17:59;9.8;;;3.7;;
76548;SDS011;65391;52.068;4.542;2023-07-24T03:20:23;9.8;;;3.7;;
76548;SDS011;65391;52.068;4.542;2023-07-24T03:22:48;9.8;;;3.7;;
76548;SDS011;65391;52.068;4.542;2023-07-24T03:25:13;12.1;;;3.9;;
76548;SDS011;65391;52.068;4.542;2023-07-24T03:27:39;12.1;;;3.9;;
76548;SDS011;65391;52.068;4.542;2023-07-24T03:30:04;12.1;;;3.9;;
76548;SDS011;65391;52.068;4.542;2023-07-24T03:32:28;12.1;;;3.9;;
76548;SDS011;65391;52.068;4.542;2023-07-24T03:34:53;10.3;;;4;;
76548;SDS011;65391;52.068;4.542;2023-07-24T03:37:18;10.3;;;4;;
76548;SDS011;65391;52.068;4.542;2023-07-24T03:39:43;10.3;;;4;;
76548;SDS011;65391;52.068;4.542;2023-07-24T03:42:09;10.3;;;4;;
76548;SDS011;65391;52.068;4.542;2023-07-24T03:44:33;8.6;;;3.8;;
76548;SDS011;65391;52.068;4.542;2023-07-24T03:46:58;8.6;;;3.8;;
76548;SDS011;65391;52.068;4.542;2023-07-24T03:49:23;8.6;;;3.8;;
76548;SDS011;65391;52.068;4.542;2023-07-24T03:51:48;8.6;;;3.8;;
76548;SDS011;65391;52.068;4.542;2023-07-24T03:54:13;10;;;3.6;;
76548;SDS011;65391;52.068;4.542;2023-07-24T03:56:39;10;;;3.6;;
76548;SDS011;65391;52.068;4.542;2023-07-24T03:59:05;10;;;3.6;;
76548;SDS011;65391;52.068;4.542;2023-07-24T04:01:28;10;;;3.6;;
76548;SDS011;65391;52.068;4.542;2023-07-24T04:03:53;10.1;;;3.7;;
76548;SDS011;65391;52.068;4.542;2023-07-24T04:06:18;10.1;;;3.7;;
76548;SDS011;65391;52.068;4.542;2023-07-24T04:08:43;10.1;;;3.7;;
76548;SDS011;65391;52.068;4.542;2023-07-24T04:11:08;10.1;;;3.7;;
76548;SDS011;65391;52.068;4.542;2023-07-24T04:13:33;7.2;;;3.3;;
76548;SDS011;65391;52.068;4.542;2023-07-24T04:15:58;7.2;;;3.3;;
76548;SDS011;65391;52.068;4.542;2023-07-24T04:18:24;7.2;;;3.3;;
76548;SDS011;65391;52.068;4.542;2023-07-24T04:20:48;7.2;;;3.3;;
76548;SDS011;65391;52.068;4.542;2023-07-24T04:23:13;7.2;;;3.3;;
76548;SDS011;65391;52.068;4.542;2023-07-24T04:25:38;11.5;;;3.8;;
76548;SDS011;65391;52.068;4.542;2023-07-24T04:28:03;11.5;;;3.8;;
76548;SDS011;65391;52.068;4.542;2023-07-24T04:30:28;11.5;;;3.8;;
76548;SDS011;65391;52.068;4.542;2023-07-24T04:32:54;11.5;;;3.8;;
76548;SDS011;65391;52.068;4.542;2023-07-24T04:35:19;12.8;;;3.7;;
76548;SDS011;65391;52.068;4.542;2023-07-24T04:37:43;12.8;;;3.7;;
76548;SDS011;65391;52.068;4.542;2023-07-24T04:40:09;12.8;;;3.7;;
76548;SDS011;65391;52.068;4.542;2023-07-24T04:42:33;12.8;;;3.7;;
76548;SDS011;65391;52.068;4.542;2023-07-24T04:44:59;11.5;;;3.5;;
76548;SDS011;65391;52.068;4.542;2023-07-24T04:47:24;11.5;;;3.5;;
76548;SDS011;65391;52.068;4.542;2023-07-24T04:49:49;11.5;;;3.5;;
76548;SDS011;65391;52.068;4.542;2023-07-24T04:52:14;11.5;;;3.5;;
76548;SDS011;65391;52.068;4.542;2023-07-24T04:54:39;10.5;;;4.4;;
76548;SDS011;65391;52.068;4.542;2023-07-24T04:57:04;10.5;;;4.4;;
76548;SDS011;65391;52.068;4.542;2023-07-24T04:59:29;10.5;;;4.4;;
76548;SDS011;65391;52.068;4.542;2023-07-24T05:01:54;10.5;;;4.4;;
76548;SDS011;65391;52.068;4.542;2023-07-24T05:04:19;9.5;;;3.2;;
76548;SDS011;65391;52.068;4.542;2023-07-24T05:06:44;9.5;;;3.2;;
76548;SDS011;65391;52.068;4.542;2023-07-24T05:09:09;9.5;;;3.2;;
76548;SDS011;65391;52.068;4.542;2023-07-24T05:11:34;9.5;;;3.2;;
76548;SDS011;65391;52.068;4.542;2023-07-24T05:13:59;11.7;;;4;;
76548;SDS011;65391;52.068;4.542;2023-07-24T05:16:24;11.7;;;4;;
76548;SDS011;65391;52.068;4.542;2023-07-24T05:18:49;11.7;;;4;;
76548;SDS011;65391;52.068;4.542;2023-07-24T05:21:14;11.7;;;4;;
76548;SDS011;65391;52.068;4.542;2023-07-24T05:23:39;11.2;;;3.1;;
76548;SDS011;65391;52.068;4.542;2023-07-24T05:26:04;11.2;;;3.1;;
76548;SDS011;65391;52.068;4.542;2023-07-24T05:28:29;11.2;;;3.1;;
76548;SDS011;65391;52.068;4.542;2023-07-24T05:30:54;11.2;;;3.1;;
76548;SDS011;65391;52.068;4.542;2023-07-24T05:33:19;11.2;;;3.1;;
76548;SDS011;65391;52.068;4.542;2023-07-24T05:35:44;12.2;;;3.6;;
76548;SDS011;65391;52.068;4.542;2023-07-24T05:38:09;12.2;;;3.6;;
76548;SDS011;65391;52.068;4.542;2023-07-24T05:40:34;12.2;;;3.6;;
76548;SDS011;65391;52.068;4.542;2023-07-24T05:42:59;12.2;;;3.6;;
76548;SDS011;65391;52.068;4.542;2023-07-24T05:45:24;8.8;;;3;;
76548;SDS011;65391;52.068;4.542;2023-07-24T05:47:49;8.8;;;3;;
76548;SDS011;65391;52.068;4.542;2023-07-24T05:50:14;8.8;;;3;;
76548;SDS011;65391;52.068;4.542;2023-07-24T05:52:39;8.8;;;3;;
76548;SDS011;65391;52.068;4.542;2023-07-24T05:55:04;9.6;;;3.3;;
76548;SDS011;65391;52.068;4.542;2023-07-24T05:57:29;9.6;;;3.3;;
76548;SDS011;65391;52.068;4.542;2023-07-24T05:59:54;9.6;;;3.3;;
76548;SDS011;65391;52.068;4.542;2023-07-24T06:02:19;9.6;;;3.3;;
76548;SDS011;65391;52.068;4.542;2023-07-24T06:04:44;6.9;;;2.9;;
76548;SDS011;65391;52.068;4.542;2023-07-24T06:07:09;6.9;;;2.9;;
76548;SDS011;65391;52.068;4.542;2023-07-24T06:09:34;6.9;;;2.9;;
76548;SDS011;65391;52.068;4.542;2023-07-24T06:11:59;6.9;;;2.9;;
76548;SDS011;65391;52.068;4.542;2023-07-24T06:14:24;7.6;;;3;;
76548;SDS011;65391;52.068;4.542;2023-07-24T06:16:49;7.6;;;3;;
76548;SDS011;65391;52.068;4.542;2023-07-24T06:19:14;7.6;;;3;;
76548;SDS011;65391;52.068;4.542;2023-07-24T06:21:39;7.6;;;3;;
76548;SDS011;65391;52.068;4.542;2023-07-24T06:24:04;10.4;;;3.5;;
76548;SDS011;65391;52.068;4.542;2023-07-24T06:26:29;10.4;;;3.5;;
76548;SDS011;65391;52.068;4.542;2023-07-24T06:28:54;10.4;;;3.5;;
76548;SDS011;65391;52.068;4.542;2023-07-24T06:31:19;10.4;;;3.5;;
76548;SDS011;65391;52.068;4.542;2023-07-24T06:33:44;11.4;;;3.1;;
76548;SDS011;65391;52.068;4.542;2023-07-24T06:36:09;11.4;;;3.1;;
76548;SDS011;65391;52.068;4.542;2023-07-24T06:38:34;11.4;;;3.1;;
76548;SDS011;65391;52.068;4.542;2023-07-24T06:40:59;11.4;;;3.1;;
76548;SDS011;65391;52.068;4.542;2023-07-24T06:43:24;11.4;;;3.1;;
76548;SDS011;65391;52.068;4.542;2023-07-24T06:45:49;7.4;;;2.4;;
76548;SDS011;65391;52.068;4.542;2023-07-24T06:48:14;7.4;;;2.4;;
76548;SDS011;65391;52.068;4.542;2023-07-24T06:50:39;7.4;;;2.4;;
76548;SDS011;65391;52.068;4.542;2023-07-24T06:53:04;7.4;;;2.4;;
76548;SDS011;65391;52.068;4.542;2023-07-24T06:55:29;11.7;;;2.8;;
76548;SDS011;65391;52.068;4.542;2023-07-24T06:57:54;11.7;;;2.8;;
76548;SDS011;65391;52.068;4.542;2023-07-24T07:00:19;11.7;;;2.8;;
76548;SDS011;65391;52.068;4.542;2023-07-24T07:02:44;11.7;;;2.8;;
76548;SDS011;65391;52.068;4.542;2023-07-24T07:05:09;6.4;;;2.5;;
76548;SDS011;65391;52.068;4.542;2023-07-24T07:07:34;6.4;;;2.5;;
76548;SDS011;65391;52.068;4.542;2023-07-24T07:09:59;6.4;;;2.5;;
76548;SDS011;65391;52.068;4.542;2023-07-24T07:12:24;6.4;;;2.5;;
76548;SDS011;65391;52.068;4.542;2023-07-24T07:14:49;10.4;;;2.7;;
76548;SDS011;65391;52.068;4.542;2023-07-24T07:17:14;10.4;;;2.7;;
76548;SDS011;65391;52.068;4.542;2023-07-24T07:19:39;10.4;;;2.7;;
76548;SDS011;65391;52.068;4.542;2023-07-24T07:22:04;10.4;;;2.7;;
76548;SDS011;65391;52.068;4.542;2023-07-24T07:24:29;8.4;;;2.5;;
76548;SDS011;65391;52.068;4.542;2023-07-24T07:26:54;8.4;;;2.5;;
76548;SDS011;65391;52.068;4.542;2023-07-24T07:29:19;8.4;;;2.5;;
76548;SDS011;65391;52.068;4.542;2023-07-24T07:31:44;8.4;;;2.5;;
76548;SDS011;65391;52.068;4.542;2023-07-24T07:34:09;9.3;;;2.4;;
76548;SDS011;65391;52.068;4.542;2023-07-24T07:36:34;9.3;;;2.4;;
76548;SDS011;65391;52.068;4.542;2023-07-24T07:38:59;9.3;;;2.4;;
76548;SDS011;65391;52.068;4.542;2023-07-24T07:41:24;9.3;;;2.4;;
76548;SDS011;65391;52.068;4.542;2023-07-24T07:43:49;5.9;;;2.4;;
76548;SDS011;65391;52.068;4.542;2023-07-24T07:46:14;5.9;;;2.4;;
76548;SDS011;65391;52.068;4.542;2023-07-24T07:48:39;5.9;;;2.4;;
76548;SDS011;65391;52.068;4.542;2023-07-24T07:51:04;5.9;;;2.4;;
76548;SDS011;65391;52.068;4.542;2023-07-24T07:53:29;5.9;;;2.4;;
76548;SDS011;65391;52.068;4.542;2023-07-24T07:55:55;6.9;;;3.6;;
76548;SDS011;65391;52.068;4.542;2023-07-24T07:58:19;6.9;;;3.6;;
76548;SDS011;65391;52.068;4.542;2023-07-24T08:00:44;6.9;;;3.6;;
76548;SDS011;65391;52.068;4.542;2023-07-24T08:03:09;6.9;;;3.6;;
76548;SDS011;65391;52.068;4.542;2023-07-24T08:05:34;3.8;;;2.1;;
76548;SDS011;65391;52.068;4.542;2023-07-24T08:07:59;3.8;;;2.1;;
76548;SDS011;65391;52.068;4.542;2023-07-24T08:10:24;3.8;;;2.1;;
76548;SDS011;65391;52.068;4.542;2023-07-24T08:12:49;3.8;;;2.1;;
76548;SDS011;65391;52.068;4.542;2023-07-24T08:15:14;10.1;;;2.6;;
76548;SDS011;65391;52.068;4.542;2023-07-24T08:17:39;10.1;;;2.6;;
76548;SDS011;65391;52.068;4.542;2023-07-24T08:20:05;10.1;;;2.6;;
76548;SDS011;65391;52.068;4.542;2023-07-24T08:22:29;10.1;;;2.6;;
76548;SDS011;65391;52.068;4.542;2023-07-24T08:24:54;4.7;;;2.7;;
76548;SDS011;65391;52.068;4.542;2023-07-24T08:27:19;4.7;;;2.7;;
76548;SDS011;65391;52.068;4.542;2023-07-24T08:29:44;4.7;;;2.7;;
76548;SDS011;65391;52.068;4.542;2023-07-24T08:32:09;4.7;;;2.7;;
76548;SDS011;65391;52.068;4.542;2023-07-24T08:34:34;7.1;;;2.7;;
76548;SDS011;65391;52.068;4.542;2023-07-24T08:36:59;7.1;;;2.7;;
76548;SDS011;65391;52.068;4.542;2023-07-24T08:39:24;7.1;;;2.7;;
76548;SDS011;65391;52.068;4.542;2023-07-24T08:41:49;7.1;;;2.7;;
76548;SDS011;65391;52.068;4.542;2023-07-24T08:44:14;6.6;;;2.6;;
76548;SDS011;65391;52.068;4.542;2023-07-24T08:46:39;6.6;;;2.6;;
76548;SDS011;65391;52.068;4.542;2023-07-24T08:49:04;6.6;;;2.6;;
76548;SDS011;65391;52.068;4.542;2023-07-24T08:51:29;6.6;;;2.6;;
76548;SDS011;65391;52.068;4.542;2023-07-24T08:53:54;7.4;;;2.7;;
76548;SDS011;65391;52.068;4.542;2023-07-24T08:56:19;7.4;;;2.7;;
76548;SDS011;65391;52.068;4.542;2023-07-24T08:58:45;7.4;;;2.7;;
76548;SDS011;65391;52.068;4.542;2023-07-24T09:01:09;7.4;;;2.7;;
76548;SDS011;65391;52.068;4.542;2023-07-24T09:03:34;7.4;;;2.7;;
76548;SDS011;65391;52.068;4.542;2023-07-24T09:05:59;18.4;;;7;;
76548;SDS011;65391;52.068;4.542;2023-07-24T09:08:28;18.4;;;7;;
76548;SDS011;65391;52.068;4.542;2023-07-24T09:10:50;18.4;;;7;;
76548;SDS011;65391;52.068;4.542;2023-07-24T09:13:14;18.4;;;7;;
76548;SDS011;65391;52.068;4.542;2023-07-24T09:15:40;7.4;;;3.2;;
76548;SDS011;65391;52.068;4.542;2023-07-24T09:18:04;7.4;;;3.2;;
76548;SDS011;65391;52.068;4.542;2023-07-24T09:20:37;7.4;;;3.2;;
76548;SDS011;65391;52.068;4.542;2023-07-24T09:22:54;7.4;;;3.2;;
76548;SDS011;65391;52.068;4.542;2023-07-24T09:25:29;5.5;;;2.6;;
76548;SDS011;65391;52.068;4.542;2023-07-24T09:27:44;5.5;;;2.6;;
76548;SDS011;65391;52.068;4.542;2023-07-24T09:30:12;5.5;;;2.6;;
76548;SDS011;65391;52.068;4.542;2023-07-24T09:32:34;5.5;;;2.6;;
76548;SDS011;65391;52.068;4.542;2023-07-24T09:34:59;6.5;;;2.5;;
76548;SDS011;65391;52.068;4.542;2023-07-24T09:37:25;6.5;;;2.5;;
76548;SDS011;65391;52.068;4.542;2023-07-24T09:39:49;6.5;;;2.5;;
76548;SDS011;65391;52.068;4.542;2023-07-24T09:42:14;6.5;;;2.5;;
76548;SDS011;65391;52.068;4.542;2023-07-24T09:44:39;5.5;;;2.4;;
76548;SDS011;65391;52.068;4.542;2023-07-24T09:47:04;5.5;;;2.4;;
76548;SDS011;65391;52.068;4.542;2023-07-24T09:49:29;5.5;;;2.4;;
76548;SDS011;65391;52.068;4.542;2023-07-24T09:51:54;5.5;;;2.4;;
76548;SDS011;65391;52.068;4.542;2023-07-24T09:54:22;5.1;;;2.3;;
76548;SDS011;65391;52.068;4.542;2023-07-24T09:56:44;5.1;;;2.3;;
76548;SDS011;65391;52.068;4.542;2023-07-24T09:59:10;5.1;;;2.3;;
76548;SDS011;65391;52.068;4.542;2023-07-24T10:01:35;5.1;;;2.3;;
76548;SDS011;65391;52.068;4.542;2023-07-24T10:03:59;4.4;;;2.8;;
76548;SDS011;65391;52.068;4.542;2023-07-24T10:06:24;4.4;;;2.8;;
76548;SDS011;65391;52.068;4.542;2023-07-24T10:08:50;4.4;;;2.8;;
76548;SDS011;65391;52.068;4.542;2023-07-24T10:11:14;4.4;;;2.8;;
76548;SDS011;65391;52.068;4.542;2023-07-24T10:13:40;4.4;;;2.8;;
76548;SDS011;65391;52.068;4.542;2023-07-24T10:16:04;5.4;;;2.7;;
76548;SDS011;65391;52.068;4.542;2023-07-24T10:18:29;5.4;;;2.7;;
76548;SDS011;65391;52.068;4.542;2023-07-24T10:21:00;5.4;;;2.7;;
76548;SDS011;65391;52.068;4.542;2023-07-24T10:23:19;5.4;;;2.7;;
76548;SDS011;65391;52.068;4.542;2023-07-24T10:25:45;5.7;;;2.8;;
76548;SDS011;65391;52.068;4.542;2023-07-24T10:28:11;5.7;;;2.8;;
76548;SDS011;65391;52.068;4.542;2023-07-24T10:30:34;5.7;;;2.8;;
76548;SDS011;65391;52.068;4.542;2023-07-24T10:33:04;5.7;;;2.8;;
76548;SDS011;65391;52.068;4.542;2023-07-24T10:35:25;6.8;;;2.5;;
76548;SDS011;65391;52.068;4.542;2023-07-24T10:37:59;6.8;;;2.5;;
76548;SDS011;65391;52.068;4.542;2023-07-24T10:40:22;6.8;;;2.5;;
76548;SDS011;65391;52.068;4.542;2023-07-24T10:42:39;6.8;;;2.5;;
76548;SDS011;65391;52.068;4.542;2023-07-24T10:45:05;4.1;;;2.2;;
76548;SDS011;65391;52.068;4.542;2023-07-24T10:47:29;4.1;;;2.2;;
76548;SDS011;65391;52.068;4.542;2023-07-24T10:49:54;4.1;;;2.2;;
76548;SDS011;65391;52.068;4.542;2023-07-24T10:52:27;4.1;;;2.2;;
76548;SDS011;65391;52.068;4.542;2023-07-24T10:54:44;6.5;;;2.7;;
76548;SDS011;65391;52.068;4.542;2023-07-24T10:57:09;6.5;;;2.7;;
76548;SDS011;65391;52.068;4.542;2023-07-24T10:59:36;6.5;;;2.7;;
76548;SDS011;65391;52.068;4.542;2023-07-24T11:01:59;6.5;;;2.7;;
76548;SDS011;65391;52.068;4.542;2023-07-24T11:04:24;3.2;;;2.4;;
76548;SDS011;65391;52.068;4.542;2023-07-24T11:06:52;3.2;;;2.4;;
76548;SDS011;65391;52.068;4.542;2023-07-24T11:09:14;3.2;;;2.4;;
76548;SDS011;65391;52.068;4.542;2023-07-24T11:11:39;3.2;;;2.4;;
76548;SDS011;65391;52.068;4.542;2023-07-24T11:14:04;4.7;;;2.3;;
76548;SDS011;65391;52.068;4.542;2023-07-24T11:16:29;4.7;;;2.3;;
76548;SDS011;65391;52.068;4.542;2023-07-24T11:18:54;4.7;;;2.3;;
76548;SDS011;65391;52.068;4.542;2023-07-24T11:21:19;4.7;;;2.3;;
76548;SDS011;65391;52.068;4.542;2023-07-24T11:23:46;4.7;;;2.3;;
76548;SDS011;65391;52.068;4.542;2023-07-24T11:26:09;5.8;;;2.9;;
76548;SDS011;65391;52.068;4.542;2023-07-24T11:28:38;5.8;;;2.9;;
76548;SDS011;65391;52.068;4.542;2023-07-24T11:31:02;5.8;;;2.9;;
76548;SDS011;65391;52.068;4.542;2023-07-24T11:33:24;5.8;;;2.9;;
76548;SDS011;65391;52.068;4.542;2023-07-24T11:35:49;2.2;;;1.4;;
76548;SDS011;65391;52.068;4.542;2023-07-24T11:38:15;2.2;;;1.4;;
76548;SDS011;65391;52.068;4.542;2023-07-24T11:40:40;2.2;;;1.4;;
76548;SDS011;65391;52.068;4.542;2023-07-24T11:43:04;2.2;;;1.4;;
76548;SDS011;65391;52.068;4.542;2023-07-24T11:45:30;3.1;;;1.7;;
76548;SDS011;65391;52.068;4.542;2023-07-24T11:47:54;3.1;;;1.7;;
76548;SDS011;65391;52.068;4.542;2023-07-24T11:50:19;3.1;;;1.7;;
76548;SDS011;65391;52.068;4.542;2023-07-24T11:52:46;3.1;;;1.7;;
76548;SDS011;65391;52.068;4.542;2023-07-24T11:55:10;4;;;1.7;;
76548;SDS011;65391;52.068;4.542;2023-07-24T11:57:34;4;;;1.7;;
76548;SDS011;65391;52.068;4.542;2023-07-24T11:59:59;4;;;1.7;;
76548;SDS011;65391;52.068;4.542;2023-07-24T12:02:26;4;;;1.7;;
76548;SDS011;65391;52.068;4.542;2023-07-24T12:04:54;5.8;;;1.2;;
76548;SDS011;65391;52.068;4.542;2023-07-24T12:07:14;5.8;;;1.2;;
76548;SDS011;65391;52.068;4.542;2023-07-24T12:09:40;5.8;;;1.2;;
76548;SDS011;65391;52.068;4.542;2023-07-24T12:12:05;5.8;;;1.2;;
76548;SDS011;65391;52.068;4.542;2023-07-24T12:14:29;2;;;1.1;;
76548;SDS011;65391;52.068;4.542;2023-07-24T12:17:00;2;;;1.1;;
76548;SDS011;65391;52.068;4.542;2023-07-24T12:19:19;2;;;1.1;;
76548;SDS011;65391;52.068;4.542;2023-07-24T12:21:44;2;;;1.1;;
76548;SDS011;65391;52.068;4.542;2023-07-24T12:24:09;3.4;;;1.3;;
76548;SDS011;65391;52.068;4.542;2023-07-24T12:26:35;3.4;;;1.3;;
76548;SDS011;65391;52.068;4.542;2023-07-24T12:29:00;3.4;;;1.3;;
76548;SDS011;65391;52.068;4.542;2023-07-24T12:31:25;3.4;;;1.3;;
76548;SDS011;65391;52.068;4.542;2023-07-24T12:33:49;3.4;;;1.3;;
76548;SDS011;65391;52.068;4.542;2023-07-24T12:36:15;1.6;;;1;;
76548;SDS011;65391;52.068;4.542;2023-07-24T12:38:40;1.6;;;1;;
76548;SDS011;65391;52.068;4.542;2023-07-24T12:41:05;1.6;;;1;;
76548;SDS011;65391;52.068;4.542;2023-07-24T12:43:30;1.6;;;1;;
76548;SDS011;65391;52.068;4.542;2023-07-24T12:45:55;3.4;;;1.2;;
76548;SDS011;65391;52.068;4.542;2023-07-24T12:48:20;3.4;;;1.2;;
76548;SDS011;65391;52.068;4.542;2023-07-24T12:50:45;3.4;;;1.2;;
76548;SDS011;65391;52.068;4.542;2023-07-24T12:53:10;3.4;;;1.2;;
76548;SDS011;65391;52.068;4.542;2023-07-24T12:55:35;4;;;1;;
76548;SDS011;65391;52.068;4.542;2023-07-24T12:58:00;4;;;1;;
76548;SDS011;65391;52.068;4.542;2023-07-24T13:00:25;4;;;1;;
76548;SDS011;65391;52.068;4.542;2023-07-24T13:02:50;4;;;1;;
76548;SDS011;65391;52.068;4.542;2023-07-24T13:05:15;4.1;;;1;;
76548;SDS011;65391;52.068;4.542;2023-07-24T13:07:40;4.1;;;1;;
76548;SDS011;65391;52.068;4.542;2023-07-24T13:10:06;4.1;;;1;;
76548;SDS011;65391;52.068;4.542;2023-07-24T13:12:30;4.1;;;1;;
76548;SDS011;65391;52.068;4.542;2023-07-24T13:14:55;4.9;;;0.8;;
76548;SDS011;65391;52.068;4.542;2023-07-24T13:17:20;4.9;;;0.8;;
76548;SDS011;65391;52.068;4.542;2023-07-24T13:19:45;4.9;;;0.8;;
76548;SDS011;65391;52.068;4.542;2023-07-24T13:22:10;4.9;;;0.8;;
76548;SDS011;65391;52.068;4.542;2023-07-24T13:24:35;5.2;;;0.9;;
76548;SDS011;65391;52.068;4.542;2023-07-24T13:27:00;5.2;;;0.9;;
76548;SDS011;65391;52.068;4.542;2023-07-24T13:29:25;5.2;;;0.9;;
76548;SDS011;65391;52.068;4.542;2023-07-24T13:31:50;5.2;;;0.9;;
76548;SDS011;65391;52.068;4.542;2023-07-24T13:34:15;1.9;;;0.9;;
76548;SDS011;65391;52.068;4.542;2023-07-24T13:36:40;1.9;;;0.9;;
76548;SDS011;65391;52.068;4.542;2023-07-24T13:39:05;1.9;;;0.9;;
76548;SDS011;65391;52.068;4.542;2023-07-24T13:41:30;1.9;;;0.9;;
76548;SDS011;65391;52.068;4.542;2023-07-24T13:43:55;1.9;;;0.9;;
76548;SDS011;65391;52.068;4.542;2023-07-24T13:46:20;5.1;;;1;;
76548;SDS011;65391;52.068;4.542;2023-07-24T13:48:45;5.1;;;1;;
76548;SDS011;65391;52.068;4.542;2023-07-24T13:51:10;5.1;;;1;;
76548;SDS011;65391;52.068;4.542;2023-07-24T13:53:35;5.1;;;1;;
76548;SDS011;65391;52.068;4.542;2023-07-24T13:56:00;6.8;;;1;;
76548;SDS011;65391;52.068;4.542;2023-07-24T13:58:25;6.8;;;1;;
76548;SDS011;65391;52.068;4.542;2023-07-24T14:00:50;6.8;;;1;;
76548;SDS011;65391;52.068;4.542;2023-07-24T14:03:15;6.8;;;1;;
76548;SDS011;65391;52.068;4.542;2023-07-24T14:05:40;5.6;;;1.1;;
76548;SDS011;65391;52.068;4.542;2023-07-24T14:08:07;5.6;;;1.1;;
76548;SDS011;65391;52.068;4.542;2023-07-24T14:10:30;5.6;;;1.1;;
76548;SDS011;65391;52.068;4.542;2023-07-24T14:12:55;5.6;;;1.1;;
76548;SDS011;65391;52.068;4.542;2023-07-24T14:15:20;6;;;1.3;;
76548;SDS011;65391;52.068;4.542;2023-07-24T14:17:45;6;;;1.3;;
76548;SDS011;65391;52.068;4.542;2023-07-24T14:20:10;6;;;1.3;;
76548;SDS011;65391;52.068;4.542;2023-07-24T14:22:35;6;;;1.3;;
76548;SDS011;65391;52.068;4.542;2023-07-24T14:25:00;5.2;;;1;;
76548;SDS011;65391;52.068;4.542;2023-07-24T14:27:25;5.2;;;1;;
76548;SDS011;65391;52.068;4.542;2023-07-24T14:29:50;5.2;;;1;;
76548;SDS011;65391;52.068;4.542;2023-07-24T14:32:15;5.2;;;1;;
76548;SDS011;65391;52.068;4.542;2023-07-24T14:34:40;3.4;;;1.2;;
76548;SDS011;65391;52.068;4.542;2023-07-24T14:37:05;3.4;;;1.2;;
76548;SDS011;65391;52.068;4.542;2023-07-24T14:39:30;3.4;;;1.2;;
76548;SDS011;65391;52.068;4.542;2023-07-24T14:41:55;3.4;;;1.2;;
76548;SDS011;65391;52.068;4.542;2023-07-24T14:44:20;3.6;;;1.1;;
76548;SDS011;65391;52.068;4.542;2023-07-24T14:46:45;3.6;;;1.1;;
76548;SDS011;65391;52.068;4.542;2023-07-24T14:49:10;3.6;;;1.1;;
76548;SDS011;65391;52.068;4.542;2023-07-24T14:51:35;3.6;;;1.1;;
76548;SDS011;65391;52.068;4.542;2023-07-24T14:54:00;3.6;;;1.1;;
76548;SDS011;65391;52.068;4.542;2023-07-24T14:56:25;3.8;;;0.4;;
76548;SDS011;65391;52.068;4.542;2023-07-24T14:58:50;3.8;;;0.4;;
76548;SDS011;65391;52.068;4.542;2023-07-24T15:01:15;3.8;;;0.4;;
76548;SDS011;65391;52.068;4.542;2023-07-24T15:03:40;3.8;;;0.4;;